createdAt,value
2023-02-03T00:00:42.198Z,0.00
2023-02-03T00:01:42.281Z,0.00
2023-02-03T00:02:42.218Z,0.00
2023-02-03T00:03:42.166Z,0.00
2023-02-03T00:04:42.153Z,0.00
2023-02-03T00:05:42.150Z,0.00
2023-02-03T00:06:42.132Z,0.00
2023-02-03T00:07:42.124Z,0.00
2023-02-03T00:08:42.110Z,0.00
2023-02-03T00:09:42.094Z,0.00
2023-02-03T00:10:42.095Z,0.00
2023-02-03T00:11:42.083Z,0.00
2023-02-03T00:12:42.070Z,0.00
2023-02-03T00:13:42.053Z,0.00
2023-02-03T00:14:42.046Z,0.00
2023-02-03T00:15:42.036Z,0.00
2023-02-03T00:16:42.077Z,0.00
2023-02-03T00:17:42.039Z,0.00
2023-02-03T00:18:41.998Z,0.00
2023-02-03T00:19:41.977Z,0.00
2023-02-03T00:20:41.973Z,0.00
2023-02-03T00:21:41.960Z,0.00
2023-02-03T00:22:41.948Z,0.00
2023-02-03T00:23:41.940Z,0.00
2023-02-03T00:24:41.926Z,0.00
2023-02-03T00:25:41.912Z,0.00
2023-02-03T00:26:41.914Z,0.00
2023-02-03T00:27:42.014Z,0.00
2023-02-03T00:28:41.891Z,0.00
2023-02-03T00:29:41.870Z,0.00
2023-02-03T00:30:41.860Z,0.00
2023-02-03T00:31:42.005Z,0.00
2023-02-03T00:32:41.858Z,0.00
2023-02-03T00:33:41.851Z,0.00
2023-02-03T00:34:41.817Z,0.00
2023-02-03T00:35:41.799Z,0.00
2023-02-03T00:36:43.074Z,0.00
2023-02-03T00:37:41.783Z,0.00
2023-02-03T00:38:41.767Z,0.00
2023-02-03T00:39:41.762Z,0.00
2023-02-03T00:40:41.748Z,0.00
2023-02-03T00:41:41.736Z,0.00
2023-02-03T00:42:41.734Z,0.00
2023-02-03T00:43:41.726Z,0.00
2023-02-03T00:44:41.710Z,0.00
2023-02-03T00:45:41.747Z,0.00
2023-02-03T00:46:41.684Z,0.00
2023-02-03T00:47:41.673Z,0.00
2023-02-03T00:48:41.656Z,0.00
2023-02-03T00:49:41.663Z,0.00
2023-02-03T00:50:41.636Z,0.00
2023-02-03T00:51:41.623Z,0.00
2023-02-03T00:52:41.611Z,0.00
2023-02-03T00:53:41.600Z,0.00
2023-02-03T00:54:41.599Z,0.00
2023-02-03T00:55:41.584Z,0.00
2023-02-03T00:56:41.566Z,0.00
2023-02-03T00:57:41.571Z,0.00
2023-02-03T00:58:41.537Z,0.00
2023-02-03T00:59:41.525Z,0.00
2023-02-03T01:00:41.521Z,0.00
2023-02-03T01:01:41.518Z,0.00
2023-02-03T01:02:41.587Z,0.00
2023-02-03T01:03:41.485Z,0.00
2023-02-03T01:04:41.471Z,0.00
2023-02-03T01:05:41.493Z,0.00
2023-02-03T01:06:41.453Z,0.00
2023-02-03T01:07:41.466Z,0.00
2023-02-03T01:08:41.425Z,0.00
2023-02-03T01:09:41.427Z,0.00
2023-02-03T01:10:41.415Z,0.00
2023-02-03T01:11:41.423Z,0.00
2023-02-03T01:12:41.379Z,0.00
2023-02-03T01:13:41.390Z,0.00
2023-02-03T01:14:41.374Z,0.00
2023-02-03T01:15:41.352Z,0.00
2023-02-03T01:16:41.412Z,0.00
2023-02-03T01:17:41.335Z,0.00
2023-02-03T01:18:41.335Z,0.00
2023-02-03T01:19:41.318Z,0.00
2023-02-03T01:20:41.309Z,0.00
2023-02-03T01:21:41.302Z,0.00
2023-02-03T01:22:41.276Z,0.00
2023-02-03T01:23:41.257Z,0.00
2023-02-03T01:24:41.248Z,0.00
2023-02-03T01:25:41.243Z,0.00
2023-02-03T01:26:41.223Z,0.00
2023-02-03T01:27:41.264Z,0.00
2023-02-03T01:28:41.206Z,0.00
2023-02-03T01:29:41.200Z,0.00
2023-02-03T01:30:41.270Z,0.00
2023-02-03T01:31:41.302Z,0.00
2023-02-03T01:32:41.157Z,0.00
2023-02-03T01:33:41.197Z,0.00
2023-02-03T01:34:41.145Z,0.00
2023-02-03T01:35:41.128Z,0.00
2023-02-03T01:36:41.121Z,0.00
2023-02-03T01:37:41.132Z,0.00
2023-02-03T01:38:41.093Z,0.00
2023-02-03T01:39:41.082Z,0.00
2023-02-03T01:40:41.066Z,0.00
2023-02-03T01:41:41.061Z,0.00
2023-02-03T01:42:41.049Z,0.00
2023-02-03T01:43:41.033Z,0.00
2023-02-03T01:44:41.031Z,0.00
2023-02-03T01:45:41.020Z,0.00
2023-02-03T01:46:41.002Z,0.00
2023-02-03T01:47:40.999Z,0.00
2023-02-03T01:48:40.995Z,0.00
2023-02-03T01:49:41.012Z,0.00
2023-02-03T01:50:40.959Z,0.00
2023-02-03T01:51:40.962Z,0.00
2023-02-03T01:52:40.942Z,0.00
2023-02-03T01:53:40.948Z,0.00
2023-02-03T01:54:40.908Z,0.00
2023-02-03T01:55:40.907Z,0.00
2023-02-03T01:56:40.891Z,0.00
2023-02-03T01:57:40.881Z,0.00
2023-02-03T01:58:40.881Z,0.00
2023-02-03T01:59:40.855Z,0.00
2023-02-03T02:00:40.841Z,0.00
2023-02-03T02:01:40.995Z,0.00
2023-02-03T02:02:40.951Z,0.00
2023-02-03T02:03:40.812Z,0.00
2023-02-03T02:04:40.801Z,0.00
2023-02-03T02:05:40.796Z,0.00
2023-02-03T02:06:40.773Z,0.00
2023-02-03T02:07:40.765Z,0.00
2023-02-03T02:08:40.747Z,0.00
2023-02-03T02:09:40.777Z,0.00
2023-02-03T02:10:40.727Z,0.00
2023-02-03T02:11:40.715Z,0.00
2023-02-03T02:12:40.703Z,0.00
2023-02-03T02:13:40.698Z,0.00
2023-02-03T02:14:40.680Z,0.00
2023-02-03T02:15:40.711Z,0.00
2023-02-03T02:16:40.666Z,0.00
2023-02-03T02:17:40.649Z,0.00
2023-02-03T02:18:40.652Z,0.00
2023-02-03T02:19:40.637Z,0.00
2023-02-03T02:20:40.624Z,0.00
2023-02-03T02:21:40.609Z,0.00
2023-02-03T02:22:40.591Z,0.00
2023-02-03T02:23:40.585Z,0.00
2023-02-03T02:24:40.576Z,0.00
2023-02-03T02:25:40.587Z,0.00
2023-02-03T02:26:40.562Z,0.00
2023-02-03T02:27:40.560Z,0.00
2023-02-03T02:28:40.526Z,0.00
2023-02-03T02:29:40.517Z,0.00
2023-02-03T02:30:40.588Z,0.00
2023-02-03T02:31:40.615Z,0.00
2023-02-03T02:32:40.477Z,0.00
2023-02-03T02:33:40.469Z,0.00
2023-02-03T02:34:40.463Z,0.00
2023-02-03T02:35:40.444Z,0.00
2023-02-03T02:36:40.443Z,0.00
2023-02-03T02:37:40.427Z,0.00
2023-02-03T02:38:40.411Z,0.00
2023-02-03T02:39:40.409Z,0.00
2023-02-03T02:40:40.387Z,0.00
2023-02-03T02:41:40.407Z,0.00
2023-02-03T02:42:40.373Z,0.00
2023-02-03T02:43:40.361Z,0.00
2023-02-03T02:44:40.364Z,0.00
2023-02-03T02:45:40.338Z,0.00
2023-02-03T02:46:40.357Z,0.00
2023-02-03T02:47:40.322Z,0.00
2023-02-03T02:48:40.329Z,0.00
2023-02-03T02:49:40.301Z,0.00
2023-02-03T02:50:40.285Z,0.00
2023-02-03T02:51:40.264Z,0.00
2023-02-03T02:52:40.265Z,0.00
2023-02-03T02:53:40.252Z,0.00
2023-02-03T02:54:40.240Z,0.00
2023-02-03T02:55:40.228Z,0.00
2023-02-03T02:56:40.222Z,0.00
2023-02-03T02:57:40.223Z,0.00
2023-02-03T02:58:40.191Z,0.00
2023-02-03T02:59:40.183Z,0.00
2023-02-03T03:00:40.180Z,0.00
2023-02-03T03:01:40.233Z,0.00
2023-02-03T03:02:40.150Z,0.00
2023-02-03T03:03:40.136Z,0.00
2023-02-03T03:04:40.158Z,0.00
2023-02-03T03:05:40.123Z,0.00
2023-02-03T03:06:40.109Z,0.00
2023-02-03T03:07:40.101Z,0.00
2023-02-03T03:08:40.071Z,0.00
2023-02-03T03:09:40.067Z,0.00
2023-02-03T03:10:40.055Z,0.00
2023-02-03T03:11:40.045Z,0.00
2023-02-03T03:12:40.027Z,0.00
2023-02-03T03:13:40.047Z,0.00
2023-02-03T03:14:40.011Z,0.00
2023-02-03T03:15:40.073Z,0.00
2023-02-03T03:16:39.990Z,0.00
2023-02-03T03:17:39.975Z,0.00
2023-02-03T03:18:39.961Z,0.00
2023-02-03T03:19:39.957Z,0.00
2023-02-03T03:20:39.948Z,0.00
2023-02-03T03:21:39.938Z,0.00
2023-02-03T03:22:39.917Z,0.00
2023-02-03T03:23:39.901Z,0.00
2023-02-03T03:24:39.892Z,0.00
2023-02-03T03:25:39.889Z,0.00
2023-02-03T03:26:39.872Z,0.00
2023-02-03T03:27:39.911Z,0.00
2023-02-03T03:28:39.862Z,0.00
2023-02-03T03:29:39.870Z,0.00
2023-02-03T03:30:39.869Z,0.00
2023-02-03T03:31:40.002Z,0.00
2023-02-03T03:32:39.810Z,0.00
2023-02-03T03:33:39.800Z,0.00
2023-02-03T03:34:39.787Z,0.00
2023-02-03T03:35:39.777Z,0.00
2023-02-03T03:36:39.765Z,0.00
2023-02-03T03:37:39.793Z,0.00
2023-02-03T03:38:39.736Z,0.00
2023-02-03T03:39:39.724Z,0.00
2023-02-03T03:40:39.724Z,0.00
2023-02-03T03:41:39.710Z,0.00
2023-02-03T03:42:39.703Z,0.00
2023-02-03T03:43:39.697Z,0.00
2023-02-03T03:44:39.683Z,0.00
2023-02-03T03:45:39.688Z,0.00
2023-02-03T03:46:39.693Z,0.00
2023-02-03T03:47:39.644Z,0.00
2023-02-03T03:48:39.633Z,0.00
2023-02-03T03:49:39.611Z,0.00
2023-02-03T03:50:39.613Z,0.00
2023-02-03T03:51:39.620Z,0.00
2023-02-03T03:52:39.612Z,0.00
2023-02-03T03:53:39.573Z,0.00
2023-02-03T03:54:39.559Z,0.00
2023-02-03T03:55:39.564Z,0.00
2023-02-03T03:56:39.553Z,0.00
2023-02-03T03:57:39.523Z,0.00
2023-02-03T03:58:39.517Z,0.00
2023-02-03T03:59:39.499Z,0.00
2023-02-03T04:00:39.498Z,0.00
2023-02-03T04:01:39.679Z,0.00
2023-02-03T04:02:39.632Z,0.00
2023-02-03T04:03:39.466Z,0.00
2023-02-03T04:04:39.452Z,0.00
2023-02-03T04:05:39.441Z,0.00
2023-02-03T04:06:39.426Z,0.00
2023-02-03T04:07:39.423Z,0.00
2023-02-03T04:08:39.408Z,0.00
2023-02-03T04:09:39.394Z,0.00
2023-02-03T04:10:39.394Z,0.00
2023-02-03T04:11:39.375Z,0.00
2023-02-03T04:12:39.359Z,0.00
2023-02-03T04:13:39.373Z,0.00
2023-02-03T04:14:39.341Z,0.00
2023-02-03T04:15:39.357Z,0.00
2023-02-03T04:16:39.309Z,0.00
2023-02-03T04:17:39.336Z,0.00
2023-02-03T04:18:39.294Z,0.00
2023-02-03T04:19:39.277Z,0.00
2023-02-03T04:20:39.278Z,0.00
2023-02-03T04:21:39.250Z,0.00
2023-02-03T04:22:39.261Z,0.00
2023-02-03T04:23:39.230Z,0.00
2023-02-03T04:24:39.236Z,0.00
2023-02-03T04:25:39.212Z,0.00
2023-02-03T04:26:39.227Z,0.00
2023-02-03T04:27:39.251Z,0.00
2023-02-03T04:28:39.183Z,0.00
2023-02-03T04:29:39.170Z,0.00
2023-02-03T04:30:39.197Z,0.00
2023-02-03T04:31:39.178Z,0.00
2023-02-03T04:32:39.140Z,0.00
2023-02-03T04:33:39.145Z,0.00
2023-02-03T04:34:39.115Z,0.00
2023-02-03T04:35:39.107Z,0.00
2023-02-03T04:36:39.090Z,0.00
2023-02-03T04:37:39.086Z,0.00
2023-02-03T04:38:39.090Z,0.00
2023-02-03T04:39:39.056Z,0.00
2023-02-03T04:40:39.057Z,0.00
2023-02-03T04:41:39.030Z,0.00
2023-02-03T04:42:39.023Z,0.00
2023-02-03T04:43:39.018Z,0.00
2023-02-03T04:44:38.995Z,0.00
2023-02-03T04:45:39.031Z,0.00
2023-02-03T04:46:38.987Z,0.00
2023-02-03T04:47:38.962Z,0.00
2023-02-03T04:48:38.951Z,0.00
2023-02-03T04:49:38.974Z,0.00
2023-02-03T04:50:38.933Z,0.00
2023-02-03T04:51:38.920Z,0.00
2023-02-03T04:52:38.905Z,0.00
2023-02-03T04:53:38.900Z,0.00
2023-02-03T04:54:38.886Z,0.00
2023-02-03T04:55:38.871Z,0.00
2023-02-03T04:56:38.870Z,0.00
2023-02-03T04:57:38.848Z,0.00
2023-02-03T04:58:38.850Z,0.00
2023-02-03T04:59:38.826Z,0.00
2023-02-03T05:00:38.894Z,0.00
2023-02-03T05:01:38.818Z,0.00
2023-02-03T05:02:38.813Z,0.00
2023-02-03T05:03:38.920Z,0.00
2023-02-03T05:04:38.781Z,0.00
2023-02-03T05:05:38.781Z,0.00
2023-02-03T05:06:38.749Z,0.00
2023-02-03T05:07:38.749Z,0.00
2023-02-03T05:08:38.725Z,0.00
2023-02-03T05:09:38.726Z,0.00
2023-02-03T05:10:38.702Z,0.00
2023-02-03T05:11:38.710Z,0.00
2023-02-03T05:12:38.682Z,0.00
2023-02-03T05:13:38.675Z,0.00
2023-02-03T05:14:38.671Z,0.00
2023-02-03T05:15:38.660Z,0.00
2023-02-03T05:16:38.679Z,0.00
2023-02-03T05:17:38.634Z,0.00
2023-02-03T05:18:38.613Z,0.00
2023-02-03T05:19:38.606Z,0.00
2023-02-03T05:20:38.589Z,0.00
2023-02-03T05:21:38.615Z,0.00
2023-02-03T05:22:38.579Z,0.00
2023-02-03T05:23:38.555Z,0.00
2023-02-03T05:24:38.557Z,0.00
2023-02-03T05:25:38.548Z,0.00
2023-02-03T05:26:38.527Z,0.00
2023-02-03T05:27:38.540Z,0.00
2023-02-03T05:28:38.507Z,0.00
2023-02-03T05:29:38.488Z,0.00
2023-02-03T05:30:38.515Z,0.00
2023-02-03T05:31:38.594Z,0.00
2023-02-03T05:32:38.460Z,0.00
2023-02-03T05:33:38.456Z,0.00
2023-02-03T05:34:40.162Z,0.00
2023-02-03T05:35:38.431Z,0.00
2023-02-03T05:36:38.429Z,0.00
2023-02-03T05:37:38.426Z,0.00
2023-02-03T05:38:38.407Z,0.00
2023-02-03T05:39:38.382Z,0.00
2023-02-03T05:40:38.372Z,0.00
2023-02-03T05:41:38.357Z,0.00
2023-02-03T05:42:38.355Z,0.00
2023-02-03T05:43:38.339Z,0.00
2023-02-03T05:44:38.325Z,0.00
2023-02-03T05:45:38.474Z,0.00
2023-02-03T05:46:38.309Z,0.00
2023-02-03T05:47:38.291Z,0.00
2023-02-03T05:48:38.282Z,0.00
2023-02-03T05:49:38.347Z,0.00
2023-02-03T05:50:38.859Z,0.00
2023-02-03T05:51:38.265Z,0.00
2023-02-03T05:52:38.263Z,0.00
2023-02-03T05:53:38.253Z,0.00
2023-02-03T05:54:38.266Z,0.00
2023-02-03T05:55:38.212Z,0.00
2023-02-03T05:56:38.196Z,0.00
2023-02-03T05:57:38.183Z,0.00
2023-02-03T05:58:38.177Z,0.00
2023-02-03T05:59:38.162Z,0.00
2023-02-03T06:00:38.146Z,0.00
2023-02-03T06:01:38.150Z,0.00
2023-02-03T06:02:38.147Z,0.00
2023-02-03T06:03:38.330Z,0.00
2023-02-03T06:04:38.176Z,0.00
2023-02-03T06:05:38.110Z,0.00
2023-02-03T06:06:38.100Z,0.00
2023-02-03T06:07:38.078Z,0.00
2023-02-03T06:08:38.058Z,0.00
2023-02-03T06:09:38.078Z,0.00
2023-02-03T06:10:38.061Z,0.00
2023-02-03T06:11:38.052Z,0.00
2023-02-03T06:12:38.024Z,0.00
2023-02-03T06:13:38.026Z,0.00
2023-02-03T06:14:37.999Z,0.00
2023-02-03T06:15:37.980Z,0.00
2023-02-03T06:16:38.026Z,0.00
2023-02-03T06:17:37.967Z,0.00
2023-02-03T06:18:37.955Z,0.00
2023-02-03T06:19:37.944Z,0.00
2023-02-03T06:20:37.932Z,0.00
2023-02-03T06:21:37.928Z,0.00
2023-02-03T06:22:37.906Z,0.00
2023-02-03T06:23:37.905Z,0.00
2023-02-03T06:24:37.890Z,0.00
2023-02-03T06:25:37.908Z,0.00
2023-02-03T06:26:37.864Z,0.00
2023-02-03T06:27:37.883Z,0.00
2023-02-03T06:28:37.847Z,0.00
2023-02-03T06:29:37.833Z,0.00
2023-02-03T06:30:37.911Z,0.00
2023-02-03T06:31:37.992Z,0.00
2023-02-03T06:32:37.811Z,0.00
2023-02-03T06:33:37.787Z,4.00
2023-02-03T06:34:37.780Z,4.00
2023-02-03T06:35:37.770Z,4.00
2023-02-03T06:36:37.754Z,4.00
2023-02-03T06:37:37.760Z,4.00
2023-02-03T06:38:37.738Z,4.00
2023-02-03T06:39:37.716Z,4.00
2023-02-03T06:40:37.724Z,4.00
2023-02-03T06:41:37.734Z,4.00
2023-02-03T06:42:37.705Z,4.00
2023-02-03T06:43:37.689Z,4.00
2023-02-03T06:44:37.693Z,4.00
2023-02-03T06:45:37.665Z,8.00
2023-02-03T06:46:37.725Z,8.00
2023-02-03T06:47:37.639Z,8.00
2023-02-03T06:48:37.634Z,8.00
2023-02-03T06:49:37.610Z,12.00
2023-02-03T06:50:37.609Z,8.00
2023-02-03T06:51:37.595Z,8.00
2023-02-03T06:52:37.586Z,12.00
2023-02-03T06:53:37.580Z,12.00
2023-02-03T06:54:37.572Z,12.00
2023-02-03T06:55:37.541Z,12.00
2023-02-03T06:56:37.542Z,16.00
2023-02-03T06:57:37.545Z,20.00
2023-02-03T06:58:37.525Z,20.00
2023-02-03T06:59:37.501Z,20.00
2023-02-03T07:00:37.485Z,20.00
2023-02-03T07:01:37.565Z,20.00
2023-02-03T07:02:37.541Z,24.00
2023-02-03T07:03:37.459Z,20.00
2023-02-03T07:04:37.444Z,24.00
2023-02-03T07:05:37.440Z,20.00
2023-02-03T07:06:37.425Z,28.00
2023-02-03T07:07:37.408Z,24.00
2023-02-03T07:08:37.399Z,24.00
2023-02-03T07:09:37.383Z,28.00
2023-02-03T07:10:37.377Z,24.00
2023-02-03T07:11:37.369Z,28.00
2023-02-03T07:12:37.360Z,24.00
2023-02-03T07:13:37.425Z,36.00
2023-02-03T07:14:37.326Z,44.00
2023-02-03T07:15:37.378Z,36.00
2023-02-03T07:16:37.362Z,44.00
2023-02-03T07:17:37.304Z,40.00
2023-02-03T07:18:47.332Z,48.00
2023-02-03T07:19:37.274Z,40.00
2023-02-03T07:20:37.255Z,60.00
2023-02-03T07:21:37.256Z,64.00
2023-02-03T07:22:37.249Z,68.00
2023-02-03T07:23:37.224Z,64.00
2023-02-03T07:24:37.213Z,60.00
2023-02-03T07:25:37.221Z,68.00
2023-02-03T07:26:37.191Z,64.00
2023-02-03T07:27:37.247Z,64.00
2023-02-03T07:28:37.172Z,76.00
2023-02-03T07:29:37.181Z,72.00
2023-02-03T07:30:37.151Z,88.00
2023-02-03T07:31:37.249Z,88.00
2023-02-03T07:32:37.135Z,100.00
2023-02-03T07:33:37.131Z,104.00
2023-02-03T07:34:37.115Z,96.00
2023-02-03T07:35:37.105Z,116.00
2023-02-03T07:36:37.076Z,108.00
2023-02-03T07:37:39.073Z,144.00
2023-02-03T07:38:37.052Z,152.00
2023-02-03T07:39:37.050Z,128.00
2023-02-03T07:40:37.039Z,160.00
2023-02-03T07:41:37.034Z,128.00
2023-02-03T07:42:37.008Z,172.00
2023-02-03T07:43:37.012Z,172.00
2023-02-03T07:44:36.993Z,152.00
2023-02-03T07:45:37.039Z,152.00
2023-02-03T07:46:37.030Z,164.00
2023-02-03T07:47:36.958Z,144.00
2023-02-03T07:48:36.953Z,196.00
2023-02-03T07:49:36.935Z,180.00
2023-02-03T07:50:36.931Z,172.00
2023-02-03T07:51:36.914Z,184.00
2023-02-03T07:52:36.899Z,192.00
2023-02-03T07:53:36.886Z,152.00
2023-02-03T07:54:36.878Z,172.00
2023-02-03T07:55:36.856Z,160.00
2023-02-03T07:56:36.857Z,176.00
2023-02-03T07:57:36.844Z,152.00
2023-02-03T07:58:36.829Z,180.00
2023-02-03T07:59:36.811Z,160.00
2023-02-03T08:00:36.798Z,112.00
2023-02-03T08:01:36.879Z,152.00
2023-02-03T08:02:36.806Z,136.00
2023-02-03T08:03:36.867Z,108.00
2023-02-03T08:04:36.795Z,104.00
2023-02-03T08:05:36.750Z,120.00
2023-02-03T08:06:36.759Z,132.00
2023-02-03T08:07:36.719Z,204.00
2023-02-03T08:08:36.730Z,224.00
2023-02-03T08:09:36.703Z,228.00
2023-02-03T08:10:36.702Z,276.00
2023-02-03T08:11:36.695Z,224.00
2023-02-03T08:12:36.679Z,216.00
2023-02-03T08:13:36.657Z,272.00
2023-02-03T08:14:36.653Z,256.00
2023-02-03T08:15:36.626Z,188.00
2023-02-03T08:16:36.758Z,172.00
2023-02-03T08:17:36.639Z,188.00
2023-02-03T08:18:36.620Z,208.00
2023-02-03T08:19:36.593Z,164.00
2023-02-03T08:20:36.568Z,200.00
2023-02-03T08:21:36.557Z,172.00
2023-02-03T08:22:36.544Z,152.00
2023-02-03T08:23:36.545Z,188.00
2023-02-03T08:24:36.543Z,200.00
2023-02-03T08:25:36.522Z,176.00
2023-02-03T08:26:36.554Z,216.00
2023-02-03T08:27:36.548Z,188.00
2023-02-03T08:28:36.505Z,192.00
2023-02-03T08:29:36.469Z,164.00
2023-02-03T08:30:36.460Z,160.00
2023-02-03T08:31:36.553Z,152.00
2023-02-03T08:32:36.462Z,164.00
2023-02-03T08:33:36.451Z,148.00
2023-02-03T08:34:36.418Z,136.00
2023-02-03T08:35:36.413Z,140.00
2023-02-03T08:36:36.401Z,128.00
2023-02-03T08:37:36.403Z,144.00
2023-02-03T08:38:36.476Z,152.00
2023-02-03T08:39:36.359Z,140.00
2023-02-03T08:40:36.358Z,196.00
2023-02-03T08:41:36.339Z,184.00
2023-02-03T08:42:36.350Z,164.00
2023-02-03T08:43:36.316Z,144.00
2023-02-03T08:44:36.301Z,192.00
2023-02-03T08:45:36.387Z,168.00
2023-02-03T08:46:36.276Z,208.00
2023-02-03T08:47:36.262Z,224.00
2023-02-03T08:48:36.248Z,276.00
2023-02-03T08:49:36.277Z,324.00
2023-02-03T08:50:36.256Z,264.00
2023-02-03T08:51:36.222Z,256.00
2023-02-03T08:52:36.215Z,268.00
2023-02-03T08:53:36.215Z,280.00
2023-02-03T08:54:36.186Z,320.00
2023-02-03T08:55:36.181Z,260.00
2023-02-03T08:56:36.168Z,252.00
2023-02-03T08:57:36.206Z,232.00
2023-02-03T08:58:36.166Z,208.00
2023-02-03T08:59:36.185Z,252.00
2023-02-03T09:00:36.123Z,280.00
2023-02-03T09:01:36.104Z,284.00
2023-02-03T09:02:36.106Z,252.00
2023-02-03T09:03:36.088Z,296.00
2023-02-03T09:04:36.120Z,292.00
2023-02-03T09:05:36.104Z,272.00
2023-02-03T09:06:36.052Z,292.00
2023-02-03T09:07:36.040Z,252.00
2023-02-03T09:08:36.032Z,256.00
2023-02-03T09:09:36.019Z,232.00
2023-02-03T09:10:36.019Z,208.00
2023-02-03T09:11:36.002Z,248.00
2023-02-03T09:12:35.988Z,192.00
2023-02-03T09:13:35.982Z,236.00
2023-02-03T09:14:35.974Z,220.00
2023-02-03T09:15:35.965Z,160.00
2023-02-03T09:16:35.993Z,144.00
2023-02-03T09:17:35.933Z,164.00
2023-02-03T09:18:35.937Z,172.00
2023-02-03T09:19:36.765Z,192.00
2023-02-03T09:20:35.895Z,176.00
2023-02-03T09:21:39.097Z,200.00
2023-02-03T09:22:35.894Z,204.00
2023-02-03T09:23:35.871Z,224.00
2023-02-03T09:24:35.857Z,260.00
2023-02-03T09:25:35.850Z,284.00
2023-02-03T09:26:35.864Z,216.00
2023-02-03T09:27:35.823Z,236.00
2023-02-03T09:28:35.836Z,264.00
2023-02-03T09:29:35.819Z,232.00
2023-02-03T09:30:35.924Z,184.00
2023-02-03T09:31:35.971Z,220.00
2023-02-03T09:32:35.791Z,240.00
2023-02-03T09:33:35.759Z,200.00
2023-02-03T09:34:35.785Z,200.00
2023-02-03T09:35:35.766Z,220.00
2023-02-03T09:36:35.747Z,212.00
2023-02-03T09:37:35.738Z,184.00
2023-02-03T09:38:35.730Z,256.00
2023-02-03T09:39:35.694Z,252.00
2023-02-03T09:40:35.754Z,208.00
2023-02-03T09:41:35.664Z,232.00
2023-02-03T09:42:35.685Z,228.00
2023-02-03T09:43:35.646Z,244.00
2023-02-03T09:44:35.691Z,288.00
2023-02-03T09:45:35.664Z,248.00
2023-02-03T09:46:35.666Z,220.00
2023-02-03T09:47:35.598Z,212.00
2023-02-03T09:48:35.611Z,188.00
2023-02-03T09:49:35.577Z,256.00
2023-02-03T09:50:35.617Z,256.00
2023-02-03T09:51:35.559Z,208.00
2023-02-03T09:52:35.625Z,240.00
2023-02-03T09:53:35.556Z,332.00
2023-02-03T09:54:35.565Z,288.00
2023-02-03T09:55:35.520Z,316.00
2023-02-03T09:56:35.566Z,380.00
2023-02-03T09:57:35.482Z,300.00
2023-02-03T09:58:35.512Z,236.00
2023-02-03T09:59:35.474Z,224.00
2023-02-03T10:00:35.484Z,244.00
2023-02-03T10:01:35.517Z,236.00
2023-02-03T10:02:35.687Z,268.00
2023-02-03T10:03:35.429Z,248.00
2023-02-03T10:04:35.481Z,328.00
2023-02-03T10:05:35.403Z,276.00
2023-02-03T10:06:35.415Z,224.00
2023-02-03T10:07:35.380Z,248.00
2023-02-03T10:08:35.383Z,300.00
2023-02-03T10:09:35.409Z,276.00
2023-02-03T10:10:35.359Z,524.00
2023-02-03T10:11:35.327Z,444.00
2023-02-03T10:12:35.345Z,364.00
2023-02-03T10:13:36.660Z,304.00
2023-02-03T10:14:35.350Z,280.00
2023-02-03T10:15:35.292Z,448.00
2023-02-03T10:16:35.335Z,536.00
2023-02-03T10:17:35.273Z,544.00
2023-02-03T10:18:35.290Z,828.00
2023-02-03T10:19:35.241Z,408.00
2023-02-03T10:20:35.287Z,424.00
2023-02-03T10:21:35.231Z,432.00
2023-02-03T10:22:35.279Z,408.00
2023-02-03T10:23:35.200Z,336.00
2023-02-03T10:24:35.270Z,240.00
2023-02-03T10:25:35.207Z,204.00
2023-02-03T10:26:35.161Z,384.00
2023-02-03T10:27:35.161Z,468.00
2023-02-03T10:28:35.171Z,500.00
2023-02-03T10:29:35.129Z,400.00
2023-02-03T10:30:35.350Z,376.00
2023-02-03T10:31:35.311Z,424.00
2023-02-03T10:32:35.101Z,332.00
2023-02-03T10:33:35.102Z,260.00
2023-02-03T10:34:35.092Z,200.00
2023-02-03T10:35:35.068Z,192.00
2023-02-03T10:36:35.068Z,276.00
2023-02-03T10:37:35.052Z,140.00
2023-02-03T10:38:35.046Z,132.00
2023-02-03T10:39:35.034Z,120.00
2023-02-03T10:40:35.056Z,104.00
2023-02-03T10:41:35.037Z,96.00
2023-02-03T10:42:34.988Z,96.00
2023-02-03T10:43:34.973Z,116.00
2023-02-03T10:44:34.962Z,116.00
2023-02-03T10:45:34.974Z,124.00
2023-02-03T10:46:35.039Z,144.00
2023-02-03T10:47:34.982Z,144.00
2023-02-03T10:48:34.925Z,220.00
2023-02-03T10:49:34.905Z,264.00
2023-02-03T10:50:34.904Z,340.00
2023-02-03T10:51:34.891Z,360.00
2023-02-03T10:52:34.874Z,372.00
2023-02-03T10:53:34.902Z,428.00
2023-02-03T10:54:34.850Z,280.00
2023-02-03T10:55:34.859Z,304.00
2023-02-03T10:56:34.845Z,404.00
2023-02-03T10:57:34.848Z,504.00
2023-02-03T10:58:34.828Z,548.00
2023-02-03T10:59:34.827Z,620.00
2023-02-03T11:00:34.802Z,1172.00
2023-02-03T11:01:34.800Z,1404.00
2023-02-03T11:02:34.821Z,1216.00
2023-02-03T11:03:34.766Z,1024.00
2023-02-03T11:04:34.788Z,904.00
2023-02-03T11:05:34.766Z,920.00
2023-02-03T11:06:34.725Z,952.00
2023-02-03T11:07:34.720Z,900.00
2023-02-03T11:08:34.703Z,952.00
2023-02-03T11:09:34.692Z,992.00
2023-02-03T11:10:34.708Z,904.00
2023-02-03T11:11:34.670Z,844.00
2023-02-03T11:12:34.653Z,828.00
2023-02-03T11:13:34.693Z,876.00
2023-02-03T11:14:34.635Z,1132.00
2023-02-03T11:15:34.663Z,1120.00
2023-02-03T11:16:34.614Z,952.00
2023-02-03T11:17:34.603Z,980.00
2023-02-03T11:18:34.604Z,956.00
2023-02-03T11:19:34.588Z,984.00
2023-02-03T11:20:34.574Z,1072.00
2023-02-03T11:21:34.565Z,972.00
2023-02-03T11:22:34.544Z,1296.00
2023-02-03T11:23:34.534Z,1480.00
2023-02-03T11:24:34.534Z,1372.00
2023-02-03T11:25:34.550Z,1188.00
2023-02-03T11:26:34.506Z,976.00
2023-02-03T11:27:34.490Z,1000.00
2023-02-03T11:28:34.482Z,1228.00
2023-02-03T11:29:34.600Z,1728.00
2023-02-03T11:30:34.469Z,1372.00
2023-02-03T11:31:34.561Z,1372.00
2023-02-03T11:32:34.431Z,1424.00
2023-02-03T11:33:34.419Z,1404.00
2023-02-03T11:34:34.441Z,1376.00
2023-02-03T11:35:34.405Z,1200.00
2023-02-03T11:36:34.398Z,1616.00
2023-02-03T11:37:34.389Z,1784.00
2023-02-03T11:38:34.364Z,1892.00
2023-02-03T11:39:34.352Z,1348.00
2023-02-03T11:40:34.415Z,1272.00
2023-02-03T11:41:34.329Z,1940.00
2023-02-03T11:42:34.331Z,1468.00
2023-02-03T11:43:34.310Z,1508.00
2023-02-03T11:44:34.299Z,1252.00
2023-02-03T11:45:34.332Z,1284.00
2023-02-03T11:46:34.322Z,1524.00
2023-02-03T11:47:34.269Z,1788.00
2023-02-03T11:48:34.264Z,1584.00
2023-02-03T11:49:34.254Z,1776.00
2023-02-03T11:50:34.237Z,4364.00
2023-02-03T11:51:34.227Z,2500.00
2023-02-03T11:52:34.216Z,2536.00
2023-02-03T11:53:36.335Z,2264.00
2023-02-03T11:54:34.200Z,1660.00
2023-02-03T11:55:34.190Z,1836.00
2023-02-03T11:56:34.169Z,2220.00
2023-02-03T11:57:34.154Z,3428.00
2023-02-03T11:58:34.147Z,3192.00
2023-02-03T11:59:34.230Z,3152.00
2023-02-03T12:00:34.128Z,2324.00
2023-02-03T12:01:34.150Z,2020.00
2023-02-03T12:02:34.166Z,2044.00
2023-02-03T12:03:34.092Z,1004.00
2023-02-03T12:04:34.186Z,2252.00
2023-02-03T12:05:34.061Z,1544.00
2023-02-03T12:06:34.060Z,1780.00
2023-02-03T12:07:34.061Z,1696.00
2023-02-03T12:08:34.035Z,2504.00
2023-02-03T12:09:34.031Z,1700.00
2023-02-03T12:10:34.007Z,1612.00
2023-02-03T12:11:34.001Z,4736.00
2023-02-03T12:12:33.994Z,1768.00
2023-02-03T12:13:33.973Z,1684.00
2023-02-03T12:14:33.960Z,4296.00
2023-02-03T12:15:33.956Z,2340.00
2023-02-03T12:16:34.082Z,2004.00
2023-02-03T12:17:33.952Z,4316.00
2023-02-03T12:18:33.929Z,2112.00
2023-02-03T12:19:33.905Z,1688.00
2023-02-03T12:20:33.893Z,1284.00
2023-02-03T12:21:33.887Z,1152.00
2023-02-03T12:22:33.877Z,1144.00
2023-02-03T12:23:33.871Z,1860.00
2023-02-03T12:24:33.850Z,1732.00
2023-02-03T12:25:33.848Z,1264.00
2023-02-03T12:26:33.833Z,1344.00
2023-02-03T12:27:33.822Z,1460.00
2023-02-03T12:28:34.401Z,1656.00
2023-02-03T12:29:33.793Z,1932.00
2023-02-03T12:30:33.908Z,1568.00
2023-02-03T12:31:33.858Z,2116.00
2023-02-03T12:32:33.756Z,1980.00
2023-02-03T12:33:33.772Z,4328.00
2023-02-03T12:34:33.735Z,3128.00
2023-02-03T12:35:33.746Z,3616.00
2023-02-03T12:36:33.732Z,2900.00
2023-02-03T12:37:33.707Z,4400.00
2023-02-03T12:38:33.699Z,3824.00
2023-02-03T12:39:33.714Z,2016.00
2023-02-03T12:40:33.668Z,1832.00
2023-02-03T12:41:33.663Z,1816.00
2023-02-03T12:42:33.651Z,1384.00
2023-02-03T12:43:33.641Z,2220.00
2023-02-03T12:44:33.622Z,1712.00
2023-02-03T12:45:33.631Z,1988.00
2023-02-03T12:46:33.596Z,1716.00
2023-02-03T12:47:33.595Z,1656.00
2023-02-03T12:48:33.601Z,1244.00
2023-02-03T12:49:33.600Z,1192.00
2023-02-03T12:50:33.557Z,1148.00
2023-02-03T12:51:33.565Z,832.00
2023-02-03T12:52:33.556Z,508.00